• Join FlightAware (Why Join?)
  • Login
  • US Flag 
08:24PM EST


 

Airport Tracker/Info


-or-


 

Live Flight TrackerFlight Track Log ✈ ASQ5415 ✈ 30-Apr-2013 ✈ KMOB - KATL

Flight Track Log - Related Links

Times and Time Zones

All times are in EDT time to prevent confusion due to time zone crossing. See the ASQ5415 flight status page for this flight to view local times or setup timezone preferences in your user account.

Time Position Orientation Groundspeed Altitude Reporting Facility
EDT Latitude Longitude Course Direction KTS MPH feet Rate Location/Type
07:07AM 30.6683 -88.2250 65° Northeast 145 167 1,400  Level Houston Center
07:08AM 30.6861 -88.1814 65° Northeast 228 262 2,800 1,574 Climbing Houston Center
07:09AM 30.7475 -88.1442 28° Northeast 240 276 4,600 2,083 Climbing Houston Center
07:10AM 30.8175 -88.1003 28° Northeast 274 315 7,000 2,628 Climbing Houston Center
07:11AM 30.8997 -88.0411 32° Northeast 292 336 9,900 1,967 Climbing Houston Center
07:12AM 30.9717 -87.9842 34° Northeast 310 357 11,000 1,190 Climbing Houston Center
07:13AM 31.0500 -87.9169 36° Northeast 349 402 12,300 1,388 Climbing Houston Center
07:14AM 31.1189 -87.8339 46° Northeast 359 413 13,800 1,475 Climbing Houston Center
07:15AM 31.1842 -87.7464 49° Northeast 359 413 15,300 1,475 Climbing Houston Center
07:16AM 31.2494 -87.6581 49° Northeast 361 415 16,800 1,488 Climbing Houston Center
07:17AM 31.3147 -87.5692 49° Northeast 363 418 18,300 1,488 Climbing Houston Center
07:18AM 31.3817 -87.4794 49° Northeast 366 421 19,800 1,532 Climbing Houston Center
07:18AM 31.4269 -87.4214 48° Northeast 370 426 20,700 1,226 Climbing Atlanta Center
07:19AM 31.4961 -87.3289 49° Northeast 370 426 21,700 1,000 Climbing Atlanta Center
07:20AM 31.5633 -87.2364 50° Northeast 370 426 22,700 1,000 Climbing Atlanta Center
07:21AM 31.6347 -87.1414 49° Northeast 378 435 23,700 900 Climbing Atlanta Center
07:22AM 31.6931 -87.0556 51° Northeast 378 435 24,500 700 Climbing Atlanta Center
07:23AM 31.7644 -86.9553 50° Northeast 378 435 25,100 600 Climbing Atlanta Center
07:24AM 31.8378 -86.8550 49° Northeast 391 450 25,700 600 Climbing Atlanta Center
07:25AM 31.9131 -86.7547 48° Northeast 403 464 26,300 650 Climbing Atlanta Center
07:26AM 32.0008 -86.6422 47° Northeast 414 476 27,000 250 Climbing Atlanta Center
07:27AM 32.0825 -86.5392 47° Northeast 414 476 26,800 -700 Descending Atlanta Center
07:28AM 32.1639 -86.4261 50° Northeast 424 488 25,600 -1,050 Descending Atlanta Center
07:29AM 32.2369 -86.3225 50° Northeast 443 510 24,700 -800 Descending Atlanta Center
07:30AM 32.3225 -86.2092 48° Northeast 447 514 24,000 -350 Descending Atlanta Center
07:31AM 32.3994 -86.0978 51° Northeast 447 514 24,000  Level Atlanta Center
07:32AM 32.4806 -85.9889 49° Northeast 447 514 24,000  Level Atlanta Center
07:33AM 32.5617 -85.8775 49° Northeast 447 514 24,000  Level Atlanta Center
07:34AM 32.6511 -85.7558 49° Northeast 452 520 24,000  Level Atlanta Center
07:35AM 32.7317 -85.6464 49° Northeast 446 513 24,000 -950 Level Atlanta Center
07:36AM 32.8103 -85.5367 50° Northeast 446 513 22,100 -2,100 Descending Atlanta Center
07:37AM 32.8867 -85.4314 49° Northeast 434 499 19,800 -2,250 Descending Atlanta Center
07:38AM 32.9608 -85.3286 49° Northeast 416 479 17,600 -2,250 Descending Atlanta Center
07:39AM 33.0308 -85.2306 50° Northeast 404 465 15,300 -2,250 Descending Atlanta Center
07:40AM 33.0942 -85.1522 46° Northeast 377 434 13,100 -1,650 Descending Atlanta Center
07:41AM 33.1575 -85.0661 49° Northeast 358 412 12,000 -650 Descending Atlanta Center
07:42AM 33.2125 -84.9922 48° Northeast 312 359 11,800 -850 Descending Atlanta Center
07:43AM 33.2672 -84.9183 48° Northeast 293 337 10,300 -1,500 Descending Atlanta Center
07:44AM 33.3364 -84.8792 25° Northeast 274 315 8,800 -1,150 Descending Atlanta Center
07:45AM 33.4156 -84.8825 358° North 274 315 8,000 -900 Descending Atlanta Center
07:46AM 33.4950 -84.8858 358° North 274 315 7,000 -500 Descending Atlanta Center
07:47AM 33.5764 -84.8964 354° North 269 310 7,000  Level Atlanta Center
07:48AM 33.6286 -84.8697 23° Northeast 211 243 7,000 -281 Level Atlanta Center
07:50AM 33.6333 -84.7833 86° East 218 251 6,400 -836 Descending Atlanta TRACON
07:50AM 33.6333 -84.7167 90° East 221 254 5,300 -1,158 Descending Atlanta TRACON
07:51AM 33.6333 -84.6500 90° East 207 238 4,200 -1,100 Descending Atlanta TRACON
07:52AM 33.6333 -84.5833 90° East 203 234 3,100 -1,053 Descending Atlanta TRACON
07:53AM 33.6333 -84.5167 90° East 178 205 2,200 -895 Descending Atlanta TRACON
07:54AM 33.6333 -84.4667 90° East 147 169 1,400 -800 Descending Atlanta TRACON
07:56AM 33.6367 -84.4279 90° East  Level Estimated
08:03AM 33.6367 -84.4279 292° West  Level Estimated
08:04AM 33.6367 -84.4279 292° West  Level Estimated